BFIBOEING FLD/KING COUNTY INTL
METARs for airports near BFI, sorted by distance:
N 0 nm 21' KBFI 222253Z VRB04KT 10SM FEW010 SCT150 07/03 A3052
SE 4 nm 32' KRNT 222253Z 00000KT 10SM CLR 06/02 A3052
S 4 nm 432' KSEA 222253Z 05006KT 10SM FEW004 FEW014 SCT170 06/02 A3051
W 18 nm 444' KPWT 222305Z 03006KT 10SM FEW017 07/04 A3051
SW 19 nm 294' KTIW 222253Z 08004KT 10SM FEW009 SCT012 SCT031 07/03 A3052
N 22 nm 606' KPAE 222253Z 34007KT 310V020 10SM VCFG FEW001 07/03 A3051
S 24 nm 322' KTCM 222258Z 07004KT 10SM FEW011 05/05 A3051
S 25 nm 537' KPLU 222315Z 00000KT 7SM OVC004 03/03 A3051
S 29 nm 301' KGRF 222258Z 04004KT 10SM SCT010 06/02 A3050
N 38 nm 141' KAWO 222256Z 30007KT 10SM CLR 08/04 A3052
SW 38 nm 272' KSHN 222253Z 05007KT 10SM OVC015 07/03 A3049
SW 41 nm 207' KOLM 222254Z 06007KT 10SM CLR 08/03 A3051
N 51 nm 47' KNUW 222256Z 33009KT 10SM FEW010 SCT150 BKN250 08/03 A3057
N 56 nm 145' KBVS 222315Z 29008KT 10SM CLR 07/05 A3053
NW 57 nm 13' KNOW 222315Z 08007KT 10SM CLR 07/05 A3054
SW 58 nm 177' KCLS 222315Z 04010KT 10SM CLR 07/04 A3048
NW 59 nm 291' KCLM 222320Z 09009KT 10SM SCT012 07/03 A3053
NW 66 nm 112' KFHR 222253Z 36005KT 10SM CLR 07/03 A3054
SW 74 nm 17' KHQM 222253Z 08013G18KT 10SM CLR 11/04 A3045
N 74 nm 34' KORS 222315Z 32007KT 10SM CLR 06/05 A3053
N 76 nm 171' KBLI 222253Z 28004KT 10SM FEW010 08/05 A3053
E 78 nm 1763' KELN 222253Z 00000KT 10SM CLR 00/M05 A3051
NW 80 nm 64' CYYJ 222300Z 09005KT 30SM FEW200 BKN250 07/05 A3054
E 85 nm 1248' KEAT 222255Z 09005KT 10SM CLR M02/M03 A3055
S 88 nm 20' KKLS 222256Z VRB06KT 10SM CLR 09/03 A3045
SE 92 nm 1098' KYKM 222253Z 00000KT 10SM CLR 04/M03 A3053
W 94 nm 193' KUIL 222253Z VRB04KT 10SM CLR 11/07 A3045
TAFs for airports near BFI, sorted by distance:
N 0 nm 21' KBFI TAF KBFI 222320Z 2300/2324 VRB04KT P6SM SCT015 BKN250
  FM230500 03004KT 4SM BR SCT015
  FM231000 00000KT 2SM BR OVC005
  TEMPO 2313/2317 1/4SM FG OVC002
  FM231700 VRB03KT 2SM BR OVC007
  FM232000 33004KT P6SM SCT015 SCT250
S 4 nm 432' KSEA TAF KSEA 222320Z 2300/2406 04006KT P6SM SCT015 BKN250
  FM230600 02003KT 1SM BR FEW010
  FM231000 00000KT 1/4SM FG VV001
  FM231700 VRB02KT 1SM BR OVC003
  FM232000 35003KT P6SM SCT005 SCT015 SCT250
W 18 nm 444' KPWT TAF KPWT 222320Z 2300/2324 03006KT P6SM BKN015
  FM230500 02003KT 2SM BR OVC005
  FM231000 VRB03KT 1/4SM FG VV001
  FM232000 05004KT P6SM SCT005 BKN010
N 22 nm 606' KPAE TAF KPAE 222320Z 2300/2324 36006KT P6SM SCT005 SCT200
  FM230500 VRB02KT 2SM BR BKN003
  FM231000 00000KT 1/4SM FG VV001
  FM231800 VRB03KT P6SM SCT005 SCT250
S 24 nm 322' KTCM TAF KTCM 222100Z 2221/2403 VRB03KT 9999 OVC005 QNH3049INS
  BECMG 2222/2223 02006KT 9999 FEW010 QNH3044INS
  BECMG 2305/2306 01004KT 3200 BR SCT001 QNH3036INS
  TEMPO 2309/2315 0600 FG
  BECMG 2317/2318 01006KT 9999 NSW OVC003 QNH3030INS
  BECMG 2323/2324 VRB06KT 9999 SCT010 QNH3030INS TX07/2222Z TN00/2314Z
S 29 nm 301' KGRF TAF
  AMD KGRF 222256Z 2222/2403 VRB05KT 9999 SCT010 QNH3050INS
  BECMG 2302/2303 VRB05KT 9999 SCT020 QNH3049INS
  BECMG 2309/2310 VRB05KT 3200 BR OVC015 QNH3047INS
  TEMPO 2313/2316 VRB02KT 1600 BR OVC010
  BECMG 2318/2319 02005KT 9999 NSW SCT020 QNH3040INS
  BECMG 2322/2323 02005KT 9999 SCT020 QNH3040INS TX07/2221Z TN02/2316Z
SW 41 nm 207' KOLM TAF KOLM 222320Z 2300/2324 05006KT P6SM SCT010 SCT200
  FM230500 00000KT 1/2SM FG VV001
  FM231000 00000KT 1/4SM FG VV001
  FM232000 15003KT 4SM BR OVC007
N 51 nm 47' KNUW TAF KNUW 2223/2323 35008KT 9999 FEW010 FEW030 SCT120 BKN250 QNH3048INS
  FM230200 VRB06KT 9999 FEW008 FEW180 QNH3043INS
  TEMPO 2304/2309 2400 BR BKN005
  FM231000 VRB04KT 2400 BR OVC003 QNH3041INS
  TEMPO 2310/2316 0800 FG OVC002
  BECMG 2319/2320 9999 SCT180 QNH3029INS T02/2309Z T7/2322Z FS30189
NW 59 nm 291' KCLM TAF KCLM 222320Z 2300/2324 08008KT P6SM OVC015
  FM230600 14003KT 6SM BR OVC010
  FM231000 14003KT 1/4SM FG OVC003
  FM231800 12003KT P6SM OVC010
SW 74 nm 17' KHQM TAF KHQM 222320Z 2300/2324 06010KT P6SM SCT200
  FM230600 05005KT 4SM BR SKC
  FM231200 10012KT 5SM BR SKC
  FM232000 03009KT P6SM SKC
N 76 nm 171' KBLI TAF KBLI 222320Z 2300/2324 30004KT P6SM FEW010 SCT200
  FM230800 00000KT 4SM BR SKC
  FM231100 00000KT 1SM BR SKC
  TEMPO 2312/2316 1/4SM FG VV001
  FM231800 34003KT P6SM SCT250
E 85 nm 1248' KEAT TAF COR KEAT 221749Z 2218/2318 VRB04KT 3SM BR SCT001
  TEMPO 2218/2221 1/4SM FZFG VV001
  FM222200 VRB03KT 6SM BR FEW250
  FM230200 VRB02KT 1/4SM FZFG VV002
SE 92 nm 1098' KYKM TAF KYKM 222320Z 2300/2324 VRB03KT P6SM FEW250
  FM230800 28003KT 4SM BR SCT006
  FM231400 29003KT 1SM BR BKN006
  FM232000 VRB03KT 6SM BR BKN025

Shortcut to this page: http://wxbay.com.

Data may contain errors.